bureau de piste

METAR LFMD 241500Z AUTO 15007KT 120V190 CAVOK 20/16 Q1017 TEMPO 3000 BR BKN005

TAF LFMD 241400Z 2415/2515 16007KT CAVOK PROB40 TEMPO 2415/2512 3000 BR BKN005

INFORMATION ADDS - 1531 UTC 24 May 2017

Plus d’information sur les terrains : LFMD et VALBERG

Les commentaires sont clos.